createdAt,value
2022-10-30T00:00:41.321Z,101062.75
2022-10-30T00:03:15.028Z,101066.53
2022-10-30T00:05:46.902Z,101066.94
2022-10-30T00:08:15.350Z,101069.50
2022-10-30T00:10:42.421Z,101060.97
2022-10-30T00:13:09.711Z,101062.06
2022-10-30T00:15:36.797Z,101063.44
2022-10-30T00:18:03.823Z,101059.16
2022-10-30T00:20:30.794Z,101055.75
2022-10-30T00:22:59.613Z,101061.72
2022-10-30T00:25:26.523Z,101052.81
2022-10-30T00:27:53.285Z,101057.56
2022-10-30T00:30:20.060Z,101050.63
2022-10-30T00:32:46.781Z,101047.25
2022-10-30T00:35:13.449Z,101049.19
2022-10-30T00:37:40.178Z,101044.06
2022-10-30T00:40:07.628Z,101044.06
2022-10-30T00:42:34.297Z,101039.56
2022-10-30T00:45:03.703Z,101039.81
2022-10-30T00:47:31.202Z,101035.69
2022-10-30T00:50:06.754Z,101035.69
2022-10-30T00:52:40.171Z,101031.28
2022-10-30T00:55:11.252Z,101033.00
2022-10-30T00:57:38.702Z,101041.41
2022-10-30T01:00:06.789Z,101043.09
2022-10-30T01:02:33.857Z,101029.47
2022-10-30T01:05:01.284Z,101023.97
2022-10-30T01:07:28.085Z,101035.81
2022-10-30T01:09:55.618Z,101030.31
2022-10-30T01:12:22.367Z,101029.34
2022-10-30T01:14:53.610Z,101021.31
2022-10-30T01:17:43.978Z,101022.00
2022-10-30T01:20:34.399Z,101018.13
2022-10-30T01:23:26.791Z,101018.63
2022-10-30T01:26:32.495Z,101021.78
2022-10-30T01:29:23.885Z,101019.50
2022-10-30T01:31:59.491Z,101002.91
2022-10-30T01:37:21.066Z,100999.63
2022-10-30T01:39:48.108Z,101000.97
2022-10-30T01:42:52.117Z,101004.22
2022-10-30T01:45:45.397Z,101007.41
2022-10-30T01:48:19.889Z,100998.88
2022-10-30T01:50:57.518Z,100988.41
2022-10-30T01:53:49.174Z,100986.69
2022-10-30T01:57:01.084Z,100984.03
2022-10-30T01:59:42.507Z,100982.06
2022-10-30T02:02:09.774Z,100981.09
2022-10-30T02:04:37.684Z,100978.53
2022-10-30T02:07:05.456Z,100975.03
2022-10-30T02:09:39.036Z,100974.28
2022-10-30T02:12:06.224Z,100979.88
2022-10-30T02:14:38.989Z,100974.28
2022-10-30T02:17:07.307Z,100964.16
2022-10-30T02:19:34.371Z,100978.16
2022-10-30T02:22:03.035Z,100962.97
2022-10-30T02:24:31.292Z,100962.97
2022-10-30T02:26:59.827Z,100967.69
2022-10-30T02:29:26.589Z,100963.56
2022-10-30T02:31:53.331Z,100956.50
2022-10-30T02:34:20.085Z,100947.97
2022-10-30T02:36:47.273Z,100947.13
2022-10-30T02:39:14.183Z,100941.03
2022-10-30T02:41:41.004Z,100941.78
2022-10-30T02:44:08.416Z,100941.78
2022-10-30T02:46:35.467Z,100943.00
2022-10-30T02:49:03.015Z,100944.09
2022-10-30T02:51:31.351Z,100937.97
2022-10-30T02:53:58.967Z,100947.22
2022-10-30T02:56:25.998Z,100946.59
2022-10-30T02:58:55.320Z,100950.03
2022-10-30T03:01:22.538Z,100949.91
2022-10-30T03:03:52.905Z,100944.81
2022-10-30T03:06:19.750Z,100950.03
2022-10-30T03:08:48.937Z,100946.50
2022-10-30T03:11:17.069Z,100943.94
2022-10-30T03:13:45.109Z,100943.22
2022-10-30T03:16:13.425Z,100944.19
2022-10-30T03:18:40.859Z,100944.06
2022-10-30T03:21:12.364Z,100940.66
2022-10-30T03:23:39.308Z,100931.88
2022-10-30T03:26:06.449Z,100942.97
2022-10-30T03:28:38.305Z,100942.09
2022-10-30T03:31:10.449Z,100943.09
2022-10-30T03:33:40.709Z,100949.28
2022-10-30T03:36:09.170Z,100937.75
2022-10-30T03:38:36.530Z,100940.63
2022-10-30T03:41:03.607Z,100941.38
2022-10-30T03:43:30.559Z,100955.47
2022-10-30T03:45:57.781Z,100950.00
2022-10-30T03:48:26.650Z,100956.22
2022-10-30T03:50:55.535Z,100956.34
2022-10-30T03:53:24.112Z,100953.56
2022-10-30T03:55:52.787Z,100954.25
2022-10-30T03:58:19.881Z,100951.59
2022-10-30T04:00:46.993Z,100956.84
2022-10-30T04:03:13.744Z,100960.25
2022-10-30T04:05:42.963Z,100955.84
2022-10-30T04:08:12.758Z,100962.66
2022-10-30T04:10:44.448Z,100962.91
2022-10-30T04:13:12.965Z,100969.97
2022-10-30T04:15:54.196Z,100971.06
2022-10-30T04:18:25.553Z,100962.66
2022-10-30T04:20:52.333Z,100977.13
2022-10-30T04:23:20.408Z,100971.28
2022-10-30T04:25:47.582Z,100988.19
2022-10-30T04:28:14.761Z,100990.00
2022-10-30T04:30:48.163Z,100990.25
2022-10-30T04:33:16.852Z,100989.16
2022-10-30T04:35:43.863Z,100976.63
2022-10-30T04:38:15.357Z,100975.88
2022-10-30T04:40:44.135Z,100970.91
2022-10-30T04:43:22.465Z,100968.22
2022-10-30T04:45:56.126Z,100960.81
2022-10-30T04:48:22.850Z,100943.19
2022-10-30T04:50:49.562Z,100936.63
2022-10-30T04:53:26.944Z,100941.84
2022-10-30T04:56:06.604Z,100940.38
2022-10-30T04:58:33.348Z,100948.75
2022-10-30T05:01:05.261Z,100953.38
2022-10-30T05:03:32.996Z,100939.88
2022-10-30T05:06:15.772Z,100932.69
2022-10-30T05:08:42.560Z,100928.69
2022-10-30T05:11:22.329Z,100931.47
2022-10-30T05:13:58.569Z,100929.03
2022-10-30T05:16:29.188Z,100936.94
2022-10-30T05:18:57.952Z,100923.06
2022-10-30T05:21:33.448Z,100917.84
2022-10-30T05:24:00.335Z,100905.31
2022-10-30T05:26:31.266Z,100903.50
2022-10-30T05:28:58.077Z,100909.69
2022-10-30T05:31:24.833Z,100905.56
2022-10-30T05:34:10.767Z,100912.88
2022-10-30T05:36:39.267Z,100909.22
2022-10-30T05:41:52.661Z,100902.28
2022-10-30T05:44:40.542Z,100914.59
2022-10-30T05:47:09.071Z,100903.88
2022-10-30T05:49:38.449Z,100898.28
2022-10-30T05:52:10.017Z,100918.84
2022-10-30T05:54:47.760Z,100930.38
2022-10-30T05:57:28.860Z,100920.91
2022-10-30T05:59:58.729Z,100923.56
2022-10-30T06:02:32.926Z,100905.09
2022-10-30T06:05:03.011Z,100915.78
2022-10-30T06:07:36.503Z,100926.50
2022-10-30T06:10:10.283Z,100926.00
2022-10-30T06:13:06.734Z,100911.63
2022-10-30T06:16:09.500Z,100923.06
2022-10-30T06:18:56.677Z,100943.50
2022-10-30T06:21:26.830Z,100934.59
2022-10-30T06:24:15.391Z,100921.22
2022-10-30T06:26:54.338Z,100915.16
2022-10-30T06:29:22.007Z,100920.28
2022-10-30T06:31:48.817Z,100912.00
2022-10-30T06:34:16.400Z,100919.06
2022-10-30T06:36:47.103Z,100916.06
2022-10-30T06:39:14.194Z,100921.63
2022-10-30T06:42:11.926Z,100920.78
2022-10-30T06:44:49.152Z,100913.97
2022-10-30T06:47:16.198Z,100900.47
2022-10-30T06:49:42.986Z,100894.84
2022-10-30T06:52:12.722Z,100897.06
2022-10-30T06:54:40.208Z,100899.50
2022-10-30T06:57:33.755Z,100900.84
2022-10-30T07:00:19.493Z,100898.16
2022-10-30T07:03:06.751Z,100896.09
2022-10-30T07:05:33.469Z,100898.41
2022-10-30T07:08:03.360Z,100913.16
2022-10-30T07:10:33.958Z,100934.06
2022-10-30T07:13:22.921Z,100929.34
2022-10-30T07:16:11.469Z,100945.06
2022-10-30T07:18:41.721Z,100952.84
2022-10-30T07:21:08.532Z,100955.25
2022-10-30T07:23:39.142Z,100952.94
2022-10-30T07:26:22.008Z,100954.66
2022-10-30T07:28:50.550Z,100955.63
2022-10-30T07:31:42.191Z,100961.59
2022-10-30T07:34:23.223Z,100956.25
2022-10-30T07:37:07.891Z,100958.69
2022-10-30T07:39:42.283Z,100954.56
2022-10-30T07:42:29.072Z,100953.22
2022-10-30T07:45:28.983Z,100952.13
2022-10-30T07:48:16.172Z,100960.91
2022-10-30T07:50:53.370Z,100960.66
2022-10-30T07:53:20.829Z,100954.41
2022-10-30T07:55:48.568Z,100949.69
2022-10-30T07:58:44.267Z,100950.28
2022-10-30T08:01:30.783Z,100952.00
2022-10-30T08:04:11.366Z,100963.31
2022-10-30T08:06:38.446Z,100954.06
2022-10-30T08:09:06.015Z,100955.28
2022-10-30T08:11:34.034Z,100946.75
2022-10-30T08:14:07.005Z,100949.44
2022-10-30T08:16:33.794Z,100938.47
2022-10-30T08:19:01.437Z,100931.53
2022-10-30T08:21:31.051Z,100944.81
2022-10-30T08:24:05.725Z,100941.13
2022-10-30T08:26:37.911Z,100944.06
2022-10-30T08:29:06.467Z,100953.53
2022-10-30T08:31:35.653Z,100952.31
2022-10-30T08:34:02.508Z,100944.97
2022-10-30T08:36:52.140Z,100948.13
2022-10-30T08:39:22.729Z,100946.78
2022-10-30T08:42:21.712Z,100955.31
2022-10-30T08:44:56.429Z,100959.69
2022-10-30T08:47:41.427Z,100960.75
2022-10-30T08:50:08.939Z,100954.75
2022-10-30T08:52:39.293Z,100947.03
2022-10-30T08:55:07.445Z,100961.91
2022-10-30T08:57:39.194Z,100957.13
2022-10-30T09:00:09.050Z,100962.22
2022-10-30T09:03:02.924Z,100963.69
2022-10-30T09:05:54.387Z,100963.88
2022-10-30T09:09:00.554Z,100957.41
2022-10-30T09:11:49.170Z,100972.25
2022-10-30T09:14:16.479Z,100960.81
2022-10-30T09:16:43.182Z,100972.72
2022-10-30T09:19:19.331Z,100953.13
2022-10-30T09:22:03.367Z,100961.19
2022-10-30T09:24:31.346Z,100955.69
2022-10-30T09:27:18.212Z,100957.19
2022-10-30T09:29:52.000Z,100965.91
2022-10-30T09:32:59.057Z,100961.97
2022-10-30T09:35:47.499Z,100952.84
2022-10-30T09:38:21.781Z,100954.38
2022-10-30T09:41:16.741Z,100957.78
2022-10-30T09:44:08.002Z,100955.97
2022-10-30T09:46:50.737Z,100945.53
2022-10-30T09:49:45.721Z,100945.59
2022-10-30T09:52:27.840Z,100947.59
2022-10-30T09:55:16.535Z,100949.16
2022-10-30T09:57:51.107Z,100940.53
2022-10-30T10:00:20.251Z,100945.81
2022-10-30T10:02:53.374Z,100940.97
2022-10-30T10:05:26.706Z,100939.88
2022-10-30T10:08:42.595Z,100938.38
2022-10-30T10:11:42.216Z,100932.00
2022-10-30T10:14:09.688Z,100935.69
2022-10-30T10:16:39.908Z,100940.53
2022-10-30T10:19:28.885Z,100931.16
2022-10-30T10:22:03.376Z,100934.41
2022-10-30T10:24:39.110Z,100934.84
2022-10-30T10:27:30.787Z,100939.22
2022-10-30T10:30:16.680Z,100937.38
2022-10-30T10:33:01.437Z,100934.66
2022-10-30T10:35:54.388Z,100932.06
2022-10-30T10:38:33.989Z,100933.50
2022-10-30T10:41:22.041Z,100938.00
2022-10-30T10:44:04.002Z,100936.41
2022-10-30T10:46:40.713Z,100934.69
2022-10-30T10:49:24.537Z,100936.25
2022-10-30T10:52:00.124Z,100939.91
2022-10-30T10:54:38.996Z,100934.09
2022-10-30T10:57:06.680Z,100940.16
2022-10-30T10:59:42.784Z,100934.09
2022-10-30T11:02:09.544Z,100932.38
2022-10-30T11:04:47.746Z,100934.78
2022-10-30T11:07:28.776Z,100929.06
2022-10-30T11:09:56.850Z,100919.59
2022-10-30T11:12:30.893Z,100908.44
2022-10-30T11:15:07.044Z,100916.13
2022-10-30T11:17:40.712Z,100909.44
2022-10-30T11:20:51.962Z,100911.28
2022-10-30T11:23:41.809Z,100909.41
2022-10-30T11:26:17.656Z,100897.31
2022-10-30T11:28:58.143Z,100904.25
2022-10-30T11:31:40.563Z,100900.94
2022-10-30T11:34:14.693Z,100898.31
2022-10-30T11:36:41.665Z,100898.31
2022-10-30T11:39:15.329Z,100902.47
2022-10-30T11:41:42.051Z,100900.28
2022-10-30T11:44:09.597Z,100910.78
2022-10-30T11:46:36.907Z,100905.06
2022-10-30T11:49:03.752Z,100909.97
2022-10-30T11:51:36.787Z,100906.84
2022-10-30T11:54:04.502Z,100907.66
2022-10-30T11:56:32.361Z,100901.09
2022-10-30T11:59:01.369Z,100904.72
2022-10-30T12:01:30.319Z,100902.31
2022-10-30T12:03:57.329Z,100902.31
2022-10-30T12:06:24.916Z,100909.56
2022-10-30T12:09:09.962Z,100910.75
2022-10-30T12:11:37.840Z,100912.09
2022-10-30T12:14:05.051Z,100911.75
2022-10-30T12:16:32.917Z,100908.09
2022-10-30T12:19:02.141Z,100909.25
2022-10-30T12:21:38.201Z,100914.38
2022-10-30T12:24:11.022Z,100912.66
2022-10-30T12:26:38.185Z,100927.34
2022-10-30T12:29:08.515Z,100927.66
2022-10-30T12:31:51.752Z,100921.22
2022-10-30T12:34:28.932Z,100922.22
2022-10-30T12:37:18.931Z,100933.44
2022-10-30T12:39:51.489Z,100918.56
2022-10-30T12:42:20.193Z,100918.56
2022-10-30T12:44:55.630Z,100921.34
2022-10-30T12:47:41.228Z,100913.75
2022-10-30T12:50:14.120Z,100906.06
2022-10-30T12:53:01.608Z,100907.66
2022-10-30T12:55:37.711Z,100914.44
2022-10-30T12:58:33.775Z,100902.78
2022-10-30T13:01:17.517Z,100907.00
2022-10-30T13:03:56.665Z,100894.69
2022-10-30T13:06:27.669Z,100908.75
2022-10-30T13:09:11.517Z,100901.63
2022-10-30T13:12:06.618Z,100902.97
2022-10-30T13:14:49.568Z,100899.91
2022-10-30T13:17:16.218Z,100899.59
2022-10-30T13:19:45.742Z,100897.72
2022-10-30T13:22:24.148Z,100904.78
2022-10-30T13:25:04.028Z,100897.72
2022-10-30T13:27:34.179Z,100905.50
2022-10-30T13:30:05.362Z,100902.13
2022-10-30T13:33:10.607Z,100902.97
2022-10-30T13:36:11.954Z,100899.41
2022-10-30T13:38:59.982Z,100898.56
2022-10-30T13:41:38.880Z,100900.78
2022-10-30T13:44:36.390Z,100891.94
2022-10-30T13:47:15.724Z,100899.94
2022-10-30T13:50:06.851Z,100896.53
2022-10-30T13:52:35.941Z,100897.22
2022-10-30T13:55:07.577Z,100890.94
2022-10-30T13:57:39.429Z,100900.94
2022-10-30T14:00:15.473Z,100901.44
2022-10-30T14:03:04.306Z,100901.91
2022-10-30T14:05:50.871Z,100901.78
2022-10-30T14:08:28.143Z,100909.56
2022-10-30T14:11:00.538Z,100909.75
2022-10-30T14:13:29.912Z,100911.09
2022-10-30T14:15:57.544Z,100911.94
2022-10-30T14:18:26.466Z,100912.94
2022-10-30T14:20:54.714Z,100915.31
2022-10-30T14:23:35.287Z,100915.50
2022-10-30T14:26:11.118Z,100911.59
2022-10-30T14:28:40.413Z,100908.75
2022-10-30T14:31:16.820Z,100906.88
2022-10-30T14:33:54.245Z,100907.56
2022-10-30T14:36:34.204Z,100907.88
2022-10-30T14:39:10.617Z,100908.88
2022-10-30T14:41:59.174Z,100905.19
2022-10-30T14:44:43.511Z,100899.25
2022-10-30T14:47:47.705Z,100906.03
2022-10-30T14:50:26.541Z,100903.31
2022-10-30T14:53:30.981Z,100906.84
2022-10-30T14:59:13.270Z,100910.41
2022-10-30T15:02:05.462Z,100921.53
2022-10-30T15:04:58.932Z,100910.69
2022-10-30T15:07:45.140Z,100916.19
2022-10-30T15:10:35.006Z,100919.84
2022-10-30T15:13:20.721Z,100925.34
2022-10-30T15:15:58.325Z,100921.28
2022-10-30T15:18:28.026Z,100924.50
2022-10-30T15:21:03.585Z,100920.41
2022-10-30T15:23:32.031Z,100924.47
2022-10-30T15:26:08.038Z,100920.00
2022-10-30T15:28:36.445Z,100912.66
2022-10-30T15:31:07.399Z,100925.22
2022-10-30T15:33:38.257Z,100926.16
2022-10-30T15:36:05.729Z,100928.13
2022-10-30T15:38:32.499Z,100923.66
2022-10-30T15:41:02.296Z,100921.28
2022-10-30T15:43:32.733Z,100920.06
2022-10-30T15:45:59.434Z,100919.50
2022-10-30T15:48:33.949Z,100923.69
2022-10-30T15:51:03.603Z,100927.00
2022-10-30T15:53:48.551Z,100920.28
2022-10-30T15:56:20.033Z,100912.13
2022-10-30T15:58:54.446Z,100918.16
2022-10-30T16:01:26.837Z,100915.56
2022-10-30T16:03:54.531Z,100916.34
2022-10-30T16:06:25.674Z,100918.09
2022-10-30T16:08:52.606Z,100921.53
2022-10-30T16:11:21.093Z,100921.59
2022-10-30T16:13:47.880Z,100923.34
2022-10-30T16:16:26.109Z,100920.88
2022-10-30T16:19:00.116Z,100911.66
2022-10-30T16:21:31.052Z,100920.22
2022-10-30T16:24:01.197Z,100916.25
2022-10-30T16:26:35.097Z,100909.81
2022-10-30T16:29:18.547Z,100914.06
2022-10-30T16:31:50.347Z,100914.81
2022-10-30T16:34:22.039Z,100915.94
2022-10-30T16:36:49.120Z,100912.25
2022-10-30T16:39:16.915Z,100918.06
2022-10-30T16:41:44.669Z,100910.72
2022-10-30T16:44:20.360Z,100918.09
2022-10-30T16:46:49.146Z,100916.53
2022-10-30T16:49:18.550Z,100922.78
2022-10-30T16:51:45.304Z,100924.06
2022-10-30T16:54:24.250Z,100925.78
2022-10-30T16:56:54.405Z,100921.25
2022-10-30T16:59:34.217Z,100928.75
2022-10-30T17:02:06.134Z,100922.94
2022-10-30T17:04:34.438Z,100925.63
2022-10-30T17:07:16.785Z,100928.31
2022-10-30T17:09:43.465Z,100924.09
2022-10-30T17:12:18.533Z,100924.38
2022-10-30T17:15:04.347Z,100935.56
2022-10-30T17:17:34.367Z,100933.84
2022-10-30T17:20:04.629Z,100936.47
2022-10-30T17:22:31.835Z,100938.47
2022-10-30T17:24:59.752Z,100942.28
2022-10-30T17:27:36.437Z,100942.84
2022-10-30T17:30:05.766Z,100946.50
2022-10-30T17:32:44.405Z,100945.09
2022-10-30T17:35:16.730Z,100948.06
2022-10-30T17:37:43.908Z,100945.75
2022-10-30T17:40:12.155Z,100952.00
2022-10-30T17:42:41.818Z,100958.66
2022-10-30T17:45:14.492Z,100958.22
2022-10-30T17:47:41.630Z,100956.66
2022-10-30T17:50:08.682Z,100967.53
2022-10-30T17:52:35.584Z,100966.81
2022-10-30T17:55:03.087Z,100968.34
2022-10-30T17:57:29.789Z,100965.53
2022-10-30T17:59:57.544Z,100964.22
2022-10-30T18:02:24.289Z,100967.16
2022-10-30T18:04:52.693Z,100964.91
2022-10-30T18:07:19.747Z,100965.59
2022-10-30T18:09:47.412Z,100959.91
2022-10-30T18:12:16.674Z,100955.66
2022-10-30T18:14:45.559Z,100956.91
2022-10-30T18:17:12.537Z,100963.22
2022-10-30T18:19:39.455Z,100964.63
2022-10-30T18:22:06.192Z,100963.91
2022-10-30T18:24:33.281Z,100968.81
2022-10-30T18:26:59.970Z,100960.19
2022-10-30T18:29:26.648Z,100964.81
2022-10-30T18:31:53.738Z,100964.84
2022-10-30T18:34:21.714Z,100961.00
2022-10-30T18:36:48.850Z,100963.41
2022-10-30T18:39:15.703Z,100961.00
2022-10-30T18:41:44.170Z,100963.63
2022-10-30T18:44:14.626Z,100966.19
2022-10-30T18:46:41.339Z,100966.41
2022-10-30T18:49:08.028Z,100966.56
2022-10-30T18:51:34.813Z,100966.97
2022-10-30T18:54:01.542Z,100960.84
2022-10-30T18:56:29.927Z,100961.59
2022-10-30T18:59:00.715Z,100967.78
2022-10-30T19:01:32.173Z,100972.56
2022-10-30T19:04:03.914Z,100967.97
2022-10-30T19:06:32.914Z,100971.19
2022-10-30T19:08:59.750Z,100972.16
2022-10-30T19:11:28.285Z,100953.66
2022-10-30T19:13:57.026Z,100962.06
2022-10-30T19:16:26.643Z,100958.41
2022-10-30T19:18:53.868Z,100956.47
2022-10-30T19:21:22.177Z,100950.22
2022-10-30T19:23:49.481Z,100950.63
2022-10-30T19:26:17.740Z,100957.22
2022-10-30T19:28:45.481Z,100964.69
2022-10-30T19:31:17.602Z,100957.00
2022-10-30T19:33:44.548Z,100961.78
2022-10-30T19:36:33.817Z,100964.13
2022-10-30T19:39:07.289Z,100959.38
2022-10-30T19:41:35.804Z,100962.44
2022-10-30T19:44:02.621Z,100960.63
2022-10-30T19:46:29.266Z,100955.97
2022-10-30T19:48:57.608Z,100952.78
2022-10-30T19:51:26.897Z,100952.03
2022-10-30T19:53:54.037Z,100952.44
2022-10-30T19:56:21.540Z,100947.09
2022-10-30T19:58:48.493Z,100950.72
2022-10-30T20:01:15.748Z,100954.50
2022-10-30T20:03:42.759Z,100957.06
2022-10-30T20:06:12.013Z,100953.41
2022-10-30T20:08:39.979Z,100949.41
2022-10-30T20:11:06.663Z,100943.56
2022-10-30T20:13:33.825Z,100946.47
2022-10-30T20:16:02.627Z,100946.13
2022-10-30T20:18:31.763Z,100941.88
2022-10-30T20:21:00.747Z,100939.69
2022-10-30T20:23:27.737Z,100943.59
2022-10-30T20:26:00.668Z,100948.19
2022-10-30T20:28:38.713Z,100950.41
2022-10-30T20:31:07.335Z,100948.44
2022-10-30T20:33:34.288Z,100948.69
2022-10-30T20:36:01.028Z,100959.78
2022-10-30T20:38:30.660Z,100961.84
2022-10-30T20:40:58.494Z,100953.31
2022-10-30T20:43:29.168Z,100964.91
2022-10-30T20:45:57.453Z,100966.38
2022-10-30T20:48:24.198Z,100974.25
2022-10-30T20:50:53.075Z,100969.97
2022-10-30T20:53:43.188Z,100971.81
2022-10-30T21:02:55.382Z,100966.44
2022-10-30T21:05:43.209Z,100971.53
2022-10-30T21:08:12.143Z,100976.28
2022-10-30T21:10:48.575Z,100981.03
2022-10-30T21:13:24.400Z,100983.31
2022-10-30T21:15:55.033Z,100973.19
2022-10-30T21:18:22.572Z,100975.50
2022-10-30T21:20:52.304Z,100972.56
2022-10-30T21:23:19.401Z,100971.47
2022-10-30T21:25:46.402Z,100964.81
2022-10-30T21:28:16.963Z,100966.38
2022-10-30T21:30:48.906Z,100968.34
2022-10-30T21:33:15.911Z,100969.31
2022-10-30T21:35:43.228Z,100956.91
2022-10-30T21:38:11.121Z,100963.13
2022-10-30T21:40:38.152Z,100957.97
2022-10-30T21:43:04.986Z,100961.75
2022-10-30T21:45:39.378Z,100956.13
2022-10-30T21:48:16.675Z,100961.97
2022-10-30T21:50:57.389Z,100951.19
2022-10-30T21:53:27.290Z,100943.72
2022-10-30T21:56:04.622Z,100951.03
2022-10-30T21:58:36.691Z,100946.25
2022-10-30T22:01:17.930Z,100954.00
2022-10-30T22:03:55.256Z,100950.56
2022-10-30T22:06:32.738Z,100951.78
2022-10-30T22:09:05.634Z,100947.16
2022-10-30T22:14:21.088Z,100962.41
2022-10-30T22:16:51.016Z,100965.94
2022-10-30T22:19:30.469Z,100977.38
2022-10-30T22:22:03.407Z,100969.25
2022-10-30T22:24:35.573Z,100976.75
2022-10-30T22:27:08.410Z,100972.75
2022-10-30T22:29:35.816Z,100981.13
2022-10-30T22:32:06.005Z,100976.78
2022-10-30T22:34:36.437Z,100974.88
2022-10-30T22:37:25.633Z,100974.34
2022-10-30T22:39:52.506Z,100976.50
2022-10-30T22:42:28.124Z,100974.47
2022-10-30T22:44:55.815Z,100973.38
2022-10-30T22:47:32.256Z,100969.28
2022-10-30T22:50:07.654Z,100977.03
2022-10-30T22:52:42.478Z,100971.78
2022-10-30T22:55:16.508Z,100974.56
2022-10-30T22:57:54.708Z,100983.88
2022-10-30T23:00:39.395Z,100983.25
2022-10-30T23:03:15.972Z,100983.03
2022-10-30T23:05:59.672Z,100979.41
2022-10-30T23:08:46.298Z,100977.56
2022-10-30T23:11:19.179Z,100975.53
2022-10-30T23:13:57.425Z,100983.56
2022-10-30T23:16:28.931Z,100975.66
2022-10-30T23:19:06.670Z,100973.59
2022-10-30T23:21:34.346Z,100971.94
2022-10-30T23:24:04.927Z,100975.34
2022-10-30T23:26:56.672Z,100980.50
2022-10-30T23:29:31.069Z,100981.44
2022-10-30T23:31:58.176Z,100982.75
2022-10-30T23:34:32.874Z,100975.16
2022-10-30T23:37:03.030Z,100973.69
2022-10-30T23:39:30.193Z,100973.16
2022-10-30T23:41:59.573Z,100971.88
2022-10-30T23:44:33.083Z,100971.66
2022-10-30T23:47:08.255Z,100970.25
2022-10-30T23:49:53.386Z,100974.06
2022-10-30T23:52:20.392Z,100967.72
2022-10-30T23:54:55.101Z,100965.41
2022-10-30T23:57:31.517Z,100966.47
